createdAt,value
2017-12-27T00:01:44.016Z,85.20
2017-12-27T00:07:25.872Z,85.60
2017-12-27T00:10:00.641Z,85.90
2017-12-27T00:12:34.642Z,85.90
2017-12-27T00:15:08.670Z,85.60
2017-12-27T00:17:42.673Z,85.80
2017-12-27T00:20:16.700Z,85.20
2017-12-27T00:22:55.562Z,85.20
2017-12-27T00:25:30.241Z,85.40
2017-12-27T00:28:04.104Z,85.10
2017-12-27T00:30:38.725Z,84.80
2017-12-27T00:33:07.980Z,84.80
2017-12-27T00:35:36.470Z,84.70
2017-12-27T00:38:04.933Z,84.50
2017-12-27T00:40:33.418Z,84.60
2017-12-27T00:43:01.898Z,84.70
2017-12-27T00:45:30.356Z,85.00
2017-12-27T00:47:58.849Z,84.70
2017-12-27T00:50:27.328Z,84.80
2017-12-27T00:52:55.781Z,84.70
2017-12-27T00:55:24.270Z,84.50
2017-12-27T00:57:52.754Z,84.00
2017-12-27T01:00:21.209Z,83.90
2017-12-27T01:02:50.465Z,83.80
2017-12-27T01:05:19.716Z,83.50
2017-12-27T01:07:48.949Z,83.90
2017-12-27T01:10:17.436Z,83.80
2017-12-27T01:12:45.924Z,83.90
2017-12-27T01:15:14.384Z,84.20
2017-12-27T01:17:42.873Z,84.90
2017-12-27T01:20:11.360Z,85.00
2017-12-27T01:22:39.821Z,85.00
2017-12-27T01:25:08.299Z,85.10
2017-12-27T01:27:36.789Z,85.10
2017-12-27T01:30:05.242Z,84.70
2017-12-27T01:32:34.489Z,84.80
2017-12-27T01:35:02.978Z,84.80
2017-12-27T01:37:31.437Z,84.80
2017-12-27T01:39:59.926Z,85.30
2017-12-27T01:42:28.412Z,85.40
2017-12-27T01:44:56.881Z,85.50
2017-12-27T01:47:25.364Z,85.70
2017-12-27T01:49:53.677Z,85.70
2017-12-27T01:52:22.135Z,85.70
2017-12-27T01:54:50.462Z,85.30
2017-12-27T01:57:20.372Z,84.20
2017-12-27T01:59:49.370Z,84.20
2017-12-27T02:02:17.962Z,83.20
2017-12-27T02:04:46.503Z,82.50
2017-12-27T02:07:15.043Z,81.60
2017-12-27T02:09:43.601Z,80.70
2017-12-27T02:12:12.150Z,80.60
2017-12-27T02:14:40.696Z,80.10
2017-12-27T02:17:09.225Z,80.00
2017-12-27T02:19:37.799Z,80.50
2017-12-27T02:22:06.341Z,80.50
2017-12-27T02:24:34.923Z,81.40
2017-12-27T02:27:04.255Z,82.00
2017-12-27T02:29:32.640Z,82.00
2017-12-27T02:32:01.202Z,82.00
2017-12-27T02:34:29.752Z,82.00
2017-12-27T02:36:58.277Z,80.30
2017-12-27T02:39:49.916Z,79.60
2017-12-27T02:42:18.534Z,80.00
2017-12-27T02:44:47.101Z,79.60
2017-12-27T02:47:16.414Z,79.60
2017-12-27T02:49:45.735Z,79.20
2017-12-27T02:52:14.249Z,79.20
2017-12-27T02:54:42.798Z,79.00
2017-12-27T02:57:11.370Z,79.20
2017-12-27T02:59:39.931Z,79.80
2017-12-27T03:02:09.294Z,81.90
2017-12-27T03:04:37.846Z,81.70
2017-12-27T03:07:06.404Z,81.90
2017-12-27T03:09:35.702Z,82.30
2017-12-27T03:12:05.003Z,82.50
2017-12-27T03:14:34.299Z,82.40
2017-12-27T03:17:03.602Z,82.30
2017-12-27T03:19:32.946Z,81.80
2017-12-27T03:22:01.606Z,81.70
2017-12-27T03:24:30.953Z,81.70
2017-12-27T03:26:59.761Z,81.30
2017-12-27T03:29:28.313Z,81.50
2017-12-27T03:31:56.878Z,81.50
2017-12-27T03:34:25.401Z,81.50
2017-12-27T03:36:53.981Z,81.50
2017-12-27T03:39:22.547Z,81.50
2017-12-27T03:41:51.061Z,81.40
2017-12-27T03:44:20.349Z,81.90
2017-12-27T03:46:48.929Z,81.10
2017-12-27T03:49:17.460Z,80.50
2017-12-27T03:51:46.030Z,80.00
2017-12-27T03:54:14.591Z,80.30
2017-12-27T03:56:43.148Z,79.90
2017-12-27T03:59:11.722Z,79.80
2017-12-27T04:01:40.262Z,79.20
2017-12-27T04:04:09.554Z,79.10
2017-12-27T04:06:38.883Z,78.80
2017-12-27T04:09:07.411Z,78.60
2017-12-27T04:11:35.961Z,78.70
2017-12-27T04:14:04.495Z,77.40
2017-12-27T04:16:33.798Z,76.80
2017-12-27T04:19:02.332Z,76.90
2017-12-27T04:21:30.880Z,76.80
2017-12-27T04:23:59.446Z,76.60
2017-12-27T04:26:28.782Z,75.70
2017-12-27T04:28:57.317Z,75.50
2017-12-27T04:31:25.872Z,75.40
2017-12-27T04:33:54.378Z,74.60
2017-12-27T04:36:22.907Z,75.60
2017-12-27T04:38:51.445Z,75.60
2017-12-27T04:41:19.977Z,75.00
2017-12-27T04:43:48.494Z,74.20
2017-12-27T04:46:16.989Z,74.10
2017-12-27T04:48:45.451Z,74.50
2017-12-27T04:51:13.939Z,73.90
2017-12-27T04:53:42.467Z,71.20
2017-12-27T04:56:11.735Z,70.90
2017-12-27T04:58:40.221Z,70.80
2017-12-27T05:01:08.700Z,70.70
2017-12-27T05:03:44.042Z,69.20
2017-12-27T05:06:12.578Z,69.30
2017-12-27T05:08:41.038Z,69.90
2017-12-27T05:11:10.121Z,71.10
2017-12-27T05:13:39.399Z,70.50
2017-12-27T05:16:07.853Z,70.60
2017-12-27T05:18:36.350Z,70.40
2017-12-27T05:21:04.671Z,69.90
2017-12-27T05:23:32.973Z,69.60
2017-12-27T05:26:01.285Z,69.30
2017-12-27T05:28:29.777Z,69.20
2017-12-27T05:30:58.436Z,69.40
2017-12-27T05:33:26.915Z,70.00
2017-12-27T05:35:55.398Z,68.90
2017-12-27T05:38:23.852Z,68.90
2017-12-27T05:40:52.333Z,68.90
2017-12-27T05:43:20.820Z,68.30
2017-12-27T05:45:49.278Z,68.60
2017-12-27T05:48:17.761Z,69.00
2017-12-27T05:50:46.236Z,69.10
2017-12-27T05:53:14.689Z,69.40
2017-12-27T05:55:43.177Z,68.50
2017-12-27T05:58:12.432Z,68.10
2017-12-27T06:00:40.888Z,68.00
2017-12-27T06:03:09.376Z,67.10
2017-12-27T06:05:37.860Z,67.80
2017-12-27T06:08:06.313Z,68.30
2017-12-27T06:10:35.572Z,67.80
2017-12-27T06:13:04.052Z,67.80
2017-12-27T06:15:32.517Z,68.00
2017-12-27T06:18:01.040Z,67.80
2017-12-27T06:20:29.610Z,67.30
2017-12-27T06:22:58.181Z,67.50
2017-12-27T06:25:26.747Z,66.80
2017-12-27T06:27:55.289Z,66.70
2017-12-27T06:30:23.820Z,66.90
2017-12-27T06:32:52.394Z,65.40
2017-12-27T06:35:20.932Z,65.80
2017-12-27T06:37:49.466Z,65.90
2017-12-27T06:40:18.026Z,67.00
2017-12-27T06:42:46.563Z,65.80
2017-12-27T06:45:16.243Z,65.70
2017-12-27T06:47:44.481Z,65.70
2017-12-27T06:50:13.609Z,65.70
2017-12-27T06:52:42.126Z,66.60
2017-12-27T06:55:11.452Z,67.30
2017-12-27T06:57:40.009Z,67.30
2017-12-27T07:00:09.337Z,67.60
2017-12-27T07:02:37.880Z,67.50
2017-12-27T07:05:09.554Z,67.00
2017-12-27T07:07:38.891Z,67.40
2017-12-27T07:10:07.453Z,67.40
2017-12-27T07:12:35.977Z,69.40
2017-12-27T07:15:04.512Z,68.30
2017-12-27T07:17:33.098Z,68.50
2017-12-27T07:20:01.613Z,70.30
2017-12-27T07:22:30.010Z,70.90
2017-12-27T07:24:58.424Z,70.70
2017-12-27T07:27:27.717Z,71.80
2017-12-27T07:29:57.068Z,71.40
2017-12-27T07:32:25.650Z,71.10
2017-12-27T07:34:54.243Z,70.90
2017-12-27T07:37:22.669Z,71.20
2017-12-27T07:39:52.011Z,72.60
2017-12-27T07:42:20.400Z,72.50
2017-12-27T07:44:48.942Z,72.50
2017-12-27T07:47:18.148Z,73.00
2017-12-27T07:49:46.553Z,73.00
2017-12-27T07:52:14.956Z,72.30
2017-12-27T07:54:43.370Z,71.40
2017-12-27T07:57:11.747Z,72.00
2017-12-27T07:59:41.062Z,73.30
2017-12-27T08:02:09.457Z,73.20
2017-12-27T08:04:37.973Z,73.70
2017-12-27T08:07:06.532Z,72.70
2017-12-27T08:09:35.106Z,74.10
2017-12-27T08:12:03.631Z,73.70
2017-12-27T08:14:32.214Z,74.50
2017-12-27T08:17:00.790Z,74.80
2017-12-27T08:19:29.334Z,75.10
2017-12-27T08:21:57.866Z,75.00
2017-12-27T08:24:26.414Z,75.30
2017-12-27T08:26:54.974Z,74.90
2017-12-27T08:29:23.528Z,74.90
2017-12-27T08:31:52.893Z,74.70
2017-12-27T08:34:21.466Z,74.60
2017-12-27T08:36:50.037Z,75.40
2017-12-27T08:39:18.622Z,76.50
2017-12-27T08:41:47.182Z,76.90
2017-12-27T08:44:15.573Z,76.60
2017-12-27T08:46:50.541Z,76.90
2017-12-27T08:49:19.172Z,77.20
2017-12-27T08:54:42.293Z,77.60
2017-12-27T08:57:10.841Z,78.70
2017-12-27T08:59:39.349Z,79.00
2017-12-27T09:02:07.927Z,79.10
2017-12-27T09:04:36.471Z,79.00
2017-12-27T09:07:05.774Z,79.50
2017-12-27T09:09:35.102Z,79.80
2017-12-27T09:12:03.775Z,79.80
2017-12-27T09:14:32.335Z,80.00
2017-12-27T09:17:01.042Z,80.10
2017-12-27T09:19:29.674Z,80.10
2017-12-27T09:24:58.823Z,80.50
2017-12-27T09:27:29.110Z,80.30
2017-12-27T09:29:57.705Z,80.20
2017-12-27T09:32:26.262Z,79.60
2017-12-27T09:34:55.052Z,78.40
2017-12-27T09:37:23.595Z,78.30
2017-12-27T09:39:52.181Z,76.50
2017-12-27T09:42:20.752Z,77.90
2017-12-27T09:44:50.049Z,78.80
2017-12-27T09:47:19.366Z,79.10
2017-12-27T09:49:47.920Z,79.00
2017-12-27T09:52:23.168Z,79.60
2017-12-27T09:54:52.469Z,78.90
2017-12-27T09:57:21.927Z,79.00
2017-12-27T09:59:50.447Z,79.00
2017-12-27T10:02:19.786Z,79.20
2017-12-27T10:04:48.310Z,79.10
2017-12-27T10:07:16.842Z,78.10
2017-12-27T10:09:46.296Z,77.80
2017-12-27T10:12:14.846Z,76.60
2017-12-27T10:14:43.612Z,77.00
2017-12-27T10:17:12.159Z,78.30
2017-12-27T10:19:40.679Z,78.60
2017-12-27T10:22:09.220Z,78.30
2017-12-27T10:24:39.237Z,78.80
2017-12-27T10:27:07.770Z,79.50
2017-12-27T10:29:37.503Z,79.80
2017-12-27T10:32:08.086Z,78.50
2017-12-27T10:34:37.437Z,75.10
2017-12-27T10:37:05.860Z,75.00
2017-12-27T10:39:35.937Z,74.10
2017-12-27T10:42:05.123Z,74.00
2017-12-27T10:44:47.649Z,73.30
2017-12-27T10:47:16.119Z,73.20
2017-12-27T10:49:44.694Z,73.10
2017-12-27T10:52:17.790Z,74.00
2017-12-27T10:54:46.407Z,74.10
2017-12-27T10:57:14.730Z,73.90
2017-12-27T10:59:43.953Z,73.80
2017-12-27T11:02:12.732Z,73.80
2017-12-27T11:04:41.274Z,72.80
2017-12-27T11:07:09.838Z,72.50
2017-12-27T11:09:38.421Z,70.90
2017-12-27T11:12:07.019Z,69.80
2017-12-27T11:14:35.563Z,70.10
2017-12-27T11:17:04.114Z,70.40
2017-12-27T11:19:34.224Z,68.10
2017-12-27T11:22:03.577Z,66.70
2017-12-27T11:24:32.150Z,66.80
2017-12-27T11:27:00.757Z,67.10
2017-12-27T11:29:40.200Z,67.30
2017-12-27T11:32:08.838Z,66.00
2017-12-27T11:34:38.202Z,66.50
2017-12-27T11:37:06.726Z,66.60
2017-12-27T11:39:37.333Z,65.30
2017-12-27T11:42:05.900Z,65.20
2017-12-27T11:44:34.466Z,66.50
2017-12-27T11:47:03.016Z,65.90
2017-12-27T11:49:31.552Z,65.30
2017-12-27T11:52:00.092Z,65.20
2017-12-27T11:54:28.654Z,64.50
2017-12-27T11:56:57.173Z,65.00
2017-12-27T11:59:25.813Z,64.00
2017-12-27T12:01:54.352Z,66.10
2017-12-27T12:04:22.881Z,65.40
2017-12-27T12:06:52.178Z,66.80
2017-12-27T12:09:21.552Z,67.90
2017-12-27T12:11:51.252Z,67.70
2017-12-27T12:14:20.597Z,68.60
2017-12-27T12:16:49.917Z,68.20
2017-12-27T12:19:18.425Z,68.20
2017-12-27T12:21:47.067Z,69.20
2017-12-27T12:24:15.687Z,68.70
2017-12-27T12:26:45.138Z,67.60
2017-12-27T12:29:14.492Z,67.70
2017-12-27T12:31:43.038Z,67.70
2017-12-27T12:34:11.595Z,67.60
2017-12-27T12:36:40.268Z,68.90
2017-12-27T12:39:09.614Z,68.40
2017-12-27T12:41:38.134Z,68.40
2017-12-27T12:44:06.691Z,69.40
2017-12-27T12:46:35.258Z,68.60
2017-12-27T12:49:03.815Z,70.20
2017-12-27T12:51:32.354Z,68.60
2017-12-27T12:54:01.171Z,68.20
2017-12-27T12:56:29.700Z,69.20
2017-12-27T12:58:58.284Z,69.50
2017-12-27T13:01:27.050Z,69.50
2017-12-27T13:03:56.560Z,70.10
2017-12-27T13:06:25.893Z,70.40
2017-12-27T13:08:54.308Z,70.30
2017-12-27T13:11:23.806Z,70.30
2017-12-27T13:13:53.943Z,71.20
2017-12-27T13:16:23.279Z,73.40
2017-12-27T13:19:01.183Z,73.30
2017-12-27T13:21:30.374Z,74.00
2017-12-27T13:23:59.483Z,74.00
2017-12-27T13:26:27.875Z,73.90
2017-12-27T13:28:56.262Z,74.40
2017-12-27T13:31:24.783Z,75.00
2017-12-27T13:33:53.335Z,74.70
2017-12-27T13:36:21.890Z,75.30
2017-12-27T13:38:50.529Z,75.00
2017-12-27T13:41:19.139Z,75.80
2017-12-27T13:43:54.390Z,72.50
2017-12-27T13:46:22.931Z,72.50
2017-12-27T13:48:51.487Z,73.70
2017-12-27T13:51:20.001Z,73.70
2017-12-27T13:53:48.547Z,74.50
2017-12-27T13:56:17.088Z,74.70
2017-12-27T13:58:46.470Z,75.50
2017-12-27T14:01:15.080Z,75.50
2017-12-27T14:03:44.409Z,75.00
2017-12-27T14:06:26.810Z,75.00
2017-12-27T14:08:55.367Z,75.20
2017-12-27T14:11:24.730Z,76.40
2017-12-27T14:13:53.303Z,76.30
2017-12-27T14:16:21.838Z,76.40
2017-12-27T14:18:51.169Z,76.50
2017-12-27T14:21:19.920Z,76.50
2017-12-27T14:23:49.194Z,76.40
2017-12-27T14:26:17.809Z,76.40
2017-12-27T14:28:46.407Z,76.40
2017-12-27T14:31:14.998Z,75.90
2017-12-27T14:33:43.538Z,76.30
2017-12-27T14:36:12.112Z,76.10
2017-12-27T14:38:40.675Z,75.80
2017-12-27T14:41:09.209Z,75.00
2017-12-27T14:43:37.787Z,75.40
2017-12-27T14:46:07.217Z,76.40
2017-12-27T14:48:35.745Z,76.30
2017-12-27T14:51:04.321Z,76.90
2017-12-27T14:53:32.877Z,77.30
2017-12-27T14:56:01.404Z,77.30
2017-12-27T14:58:29.949Z,77.30
2017-12-27T15:00:58.559Z,77.80
2017-12-27T15:03:27.249Z,77.90
2017-12-27T15:05:55.810Z,77.90
2017-12-27T15:08:24.335Z,78.90
2017-12-27T15:10:52.917Z,78.20
2017-12-27T15:13:21.442Z,78.00
2017-12-27T15:15:49.981Z,78.00
2017-12-27T15:18:18.478Z,78.10
2017-12-27T15:20:47.047Z,78.20
2017-12-27T15:23:15.650Z,77.80
2017-12-27T15:25:44.358Z,77.70
2017-12-27T15:28:12.919Z,78.20
2017-12-27T15:30:41.455Z,78.40
2017-12-27T15:33:10.038Z,78.30
2017-12-27T15:35:38.611Z,78.30
2017-12-27T15:38:07.162Z,78.60
2017-12-27T15:40:35.506Z,79.00
2017-12-27T15:43:04.898Z,78.20
2017-12-27T15:45:38.704Z,78.50
2017-12-27T15:48:08.005Z,78.70
2017-12-27T15:50:38.205Z,77.90
2017-12-27T15:53:07.527Z,78.70
2017-12-27T15:55:36.870Z,78.10
2017-12-27T15:58:05.396Z,78.10
2017-12-27T16:00:33.961Z,78.10
2017-12-27T16:03:02.490Z,78.30
2017-12-27T16:05:31.016Z,78.20
2017-12-27T16:07:59.411Z,78.10
2017-12-27T16:10:27.793Z,78.00
2017-12-27T16:12:56.302Z,78.10
2017-12-27T16:15:24.871Z,78.10
2017-12-27T16:17:53.271Z,77.90
2017-12-27T16:20:21.878Z,78.20
2017-12-27T16:22:50.447Z,78.10
2017-12-27T16:25:19.983Z,78.00
2017-12-27T16:27:48.515Z,78.10
2017-12-27T16:30:17.818Z,78.40
2017-12-27T16:32:46.371Z,78.40
2017-12-27T16:35:14.895Z,78.40
2017-12-27T16:37:43.450Z,78.60
2017-12-27T16:40:11.982Z,78.60
2017-12-27T16:42:40.546Z,79.30
2017-12-27T16:45:09.096Z,78.40
2017-12-27T16:47:38.478Z,78.90
2017-12-27T16:50:07.087Z,78.70
2017-12-27T16:52:35.624Z,79.00
2017-12-27T16:55:03.934Z,79.20
2017-12-27T16:57:32.466Z,79.20
2017-12-27T17:00:01.014Z,79.30
2017-12-27T17:02:30.391Z,79.80
2017-12-27T17:04:59.120Z,79.80
2017-12-27T17:07:27.672Z,79.70
2017-12-27T17:09:56.198Z,79.60
2017-12-27T17:12:24.723Z,79.70
2017-12-27T17:14:53.353Z,79.50
2017-12-27T17:17:21.912Z,79.50
2017-12-27T17:19:51.179Z,79.50
2017-12-27T17:22:42.210Z,79.50
2017-12-27T17:25:12.546Z,79.40
2017-12-27T17:27:41.275Z,79.40
2017-12-27T17:30:09.842Z,80.10
2017-12-27T17:32:38.437Z,80.00
2017-12-27T17:35:07.026Z,79.90
2017-12-27T17:37:35.611Z,79.90
2017-12-27T17:40:04.131Z,79.70
2017-12-27T17:42:33.634Z,79.70
2017-12-27T17:45:06.703Z,80.10
2017-12-27T17:47:35.236Z,79.50
2017-12-27T17:50:04.693Z,79.90
2017-12-27T17:52:36.746Z,79.60
2017-12-27T17:55:05.436Z,79.90
2017-12-27T17:57:34.836Z,80.40
2017-12-27T18:00:03.385Z,80.50
2017-12-27T18:02:32.891Z,80.70
2017-12-27T18:05:05.327Z,80.50
2017-12-27T18:07:33.968Z,80.50
2017-12-27T18:10:02.526Z,80.80
2017-12-27T18:12:56.538Z,80.40
2017-12-27T18:15:25.050Z,80.40
2017-12-27T18:17:53.597Z,80.70
2017-12-27T18:20:22.131Z,80.50
2017-12-27T18:22:50.722Z,80.70
2017-12-27T18:25:19.290Z,80.50
2017-12-27T18:27:47.907Z,79.30
2017-12-27T18:30:16.630Z,78.90
2017-12-27T18:32:45.228Z,79.00
2017-12-27T18:35:13.911Z,78.10
2017-12-27T18:37:42.451Z,79.00
2017-12-27T18:40:11.753Z,79.20
2017-12-27T18:42:41.959Z,78.90
2017-12-27T18:45:11.254Z,80.00
2017-12-27T18:47:39.830Z,79.90
2017-12-27T18:50:08.354Z,79.60
2017-12-27T18:52:36.757Z,79.10
2017-12-27T18:55:05.142Z,79.00
2017-12-27T18:57:33.534Z,79.60
2017-12-27T19:00:01.899Z,79.20
2017-12-27T19:02:30.288Z,79.20
2017-12-27T19:04:58.672Z,79.10
2017-12-27T19:07:27.259Z,79.60
2017-12-27T19:09:55.742Z,80.10
2017-12-27T19:12:24.310Z,80.50
2017-12-27T19:14:52.699Z,80.70
2017-12-27T19:17:21.074Z,80.90
2017-12-27T19:19:49.676Z,81.30
2017-12-27T19:22:19.143Z,81.20
2017-12-27T19:24:47.733Z,81.80
2017-12-27T19:27:16.290Z,82.10
2017-12-27T19:29:44.834Z,81.90
2017-12-27T19:32:13.383Z,82.50
2017-12-27T19:34:41.899Z,82.50
2017-12-27T19:37:11.386Z,82.60
2017-12-27T19:39:39.970Z,82.40
2017-12-27T19:42:08.602Z,82.70
2017-12-27T19:44:37.198Z,82.60
2017-12-27T19:47:06.510Z,82.80
2017-12-27T19:49:35.038Z,82.80
2017-12-27T19:52:03.623Z,82.80
2017-12-27T19:54:33.007Z,82.50
2017-12-27T19:57:01.527Z,82.50
2017-12-27T19:59:30.072Z,82.30
2017-12-27T20:01:58.606Z,82.00
2017-12-27T20:04:27.150Z,82.40
2017-12-27T20:06:55.798Z,82.50
2017-12-27T20:09:24.382Z,83.10
2017-12-27T20:11:52.952Z,82.40
2017-12-27T20:14:21.482Z,82.80
2017-12-27T20:16:50.875Z,82.80
2017-12-27T20:19:19.589Z,82.60
2017-12-27T20:21:48.276Z,82.40
2017-12-27T20:24:16.846Z,82.40
2017-12-27T20:26:45.590Z,82.00
2017-12-27T20:29:13.983Z,81.40
2017-12-27T20:31:42.651Z,81.90
2017-12-27T20:34:11.222Z,81.60
2017-12-27T20:36:39.761Z,81.60
2017-12-27T20:39:09.185Z,81.50
2017-12-27T20:41:39.571Z,81.80
2017-12-27T20:44:08.089Z,81.80
2017-12-27T20:46:37.392Z,81.70
2017-12-27T20:49:05.926Z,81.70
2017-12-27T20:51:34.539Z,81.70
2017-12-27T20:54:03.338Z,81.50
2017-12-27T20:56:32.206Z,81.40
2017-12-27T20:59:00.780Z,81.40
2017-12-27T21:01:29.336Z,81.60
2017-12-27T21:03:57.923Z,81.70
2017-12-27T21:06:26.518Z,82.20
2017-12-27T21:08:55.038Z,82.40
2017-12-27T21:11:24.346Z,82.30
2017-12-27T21:13:53.696Z,82.60
2017-12-27T21:16:22.195Z,82.60
2017-12-27T21:18:50.766Z,82.70
2017-12-27T21:21:19.339Z,82.90
2017-12-27T21:23:47.838Z,83.00
2017-12-27T21:26:16.398Z,83.10
2017-12-27T21:28:44.942Z,82.90
2017-12-27T21:31:14.231Z,82.60
2017-12-27T21:33:43.537Z,82.20
2017-12-27T21:36:12.913Z,82.10
2017-12-27T21:38:41.433Z,82.10
2017-12-27T21:41:09.987Z,82.30
2017-12-27T21:43:38.546Z,82.10
2017-12-27T21:49:06.327Z,83.00
2017-12-27T21:51:39.535Z,82.70
2017-12-27T21:54:08.089Z,82.90
2017-12-27T21:56:36.587Z,83.00
2017-12-27T21:59:10.778Z,83.00
2017-12-27T22:01:42.719Z,82.90
2017-12-27T22:04:11.382Z,82.70
2017-12-27T22:06:40.748Z,82.50
2017-12-27T22:09:09.262Z,82.50
2017-12-27T22:11:37.840Z,82.30
2017-12-27T22:14:06.491Z,82.10
2017-12-27T22:16:35.022Z,82.40
2017-12-27T22:19:04.404Z,82.60
2017-12-27T22:21:32.954Z,82.60
2017-12-27T22:24:01.498Z,82.60
2017-12-27T22:26:30.056Z,82.70
2017-12-27T22:28:58.626Z,82.60
2017-12-27T22:31:26.822Z,82.70
2017-12-27T22:33:55.354Z,82.80
2017-12-27T22:36:24.095Z,82.90
2017-12-27T22:38:53.422Z,83.00
2017-12-27T22:41:21.971Z,83.00
2017-12-27T22:43:50.526Z,83.20
2017-12-27T22:46:19.064Z,83.40
2017-12-27T22:48:47.646Z,83.50
2017-12-27T22:51:16.205Z,83.70
2017-12-27T22:53:45.503Z,84.20
2017-12-27T22:56:14.651Z,83.80
2017-12-27T22:58:43.201Z,83.70
2017-12-27T23:01:11.689Z,83.50
2017-12-27T23:03:40.221Z,83.30
2017-12-27T23:06:08.775Z,83.10
2017-12-27T23:08:37.305Z,82.90
2017-12-27T23:11:05.887Z,82.70
2017-12-27T23:13:35.184Z,83.00
2017-12-27T23:16:03.742Z,82.30
2017-12-27T23:18:32.346Z,82.00
2017-12-27T23:21:00.902Z,82.10
2017-12-27T23:23:29.498Z,82.00
2017-12-27T23:25:58.068Z,81.60
2017-12-27T23:28:26.679Z,81.60
2017-12-27T23:30:55.213Z,81.40
2017-12-27T23:33:23.770Z,81.00
2017-12-27T23:35:53.075Z,80.90
2017-12-27T23:38:21.625Z,80.90
2017-12-27T23:40:50.163Z,80.90
2017-12-27T23:43:18.734Z,80.80
2017-12-27T23:45:47.285Z,80.40
2017-12-27T23:48:15.905Z,80.30
2017-12-27T23:50:44.447Z,79.80
2017-12-27T23:53:12.966Z,79.50
2017-12-27T23:55:41.515Z,79.10
2017-12-27T23:58:10.074Z,79.10
